Etusivu
METAR-TAF:

METAR-TAF

Lentoasemat :

Namsos, Norja

Leveyspiiri: 64-28N, Pituuspiiri: 011-35E, korkeus merenpinnasta: 0 m

Tämänhetkinen sää

Tämä raportti tehtiin 4 tuntia ja 31 minuuttia sitten, kello 08.20 UTC
Tuuli 15 kn lännestä/lounaasta puuskistuen 25 kn:hen
Lämpötila 10°C
Kosteus 82%
Ilmanpaine 1013 hPa
Näkyvyys 10 km tai enemmän
Hajanaisia pilviä 2600 ft:n korkeudessa
Hajonneita pilviä 3300 ft:n korkeudessa
heikkoa sadetta, tihkusadetta

METAR: ENNM 250820Z 25015G25KT 9999 -RADZ SCT026 BKN033 10/07 Q1013

Aika: 14:51 (12:51 UTC)


TAF: puuttuu

Säähavainnot ja -ennusteet yli 4000 lentoasemalta (METAR- ja TAF-raportit).

Käytössä olevat sääasemat on merkitty karttaan keltaisilla ja punaisilla pisteillä.

Aseta hiiri pisteen päälle nähdäksesi sääaseman nimen.

Klikkaa sitten nähdäksesi säähavainnot ja -ennusteet.

Kartan vaihtaminen: klikkaa mustalla rastilla varustettuja vihreitä pisteitä, niin voit zoomata sisään; viivalla varustettua vihreää pistettä, niin voit zoomata ulos tai vihreitä nuolia, niin pääset viereisille kartoille.


METAR-TAF: